createdAt,value
2022-11-16T00:00:01.509Z,2.28
2022-11-16T00:02:31.489Z,2.40
2022-11-16T00:04:57.837Z,2.00
2022-11-16T00:07:24.468Z,2.58
2022-11-16T00:09:50.863Z,2.45
2022-11-16T00:12:17.369Z,2.67
2022-11-16T00:14:43.681Z,2.40
2022-11-16T00:17:10.382Z,2.50
2022-11-16T00:19:36.943Z,2.30
2022-11-16T00:22:03.442Z,2.50
2022-11-16T00:24:29.902Z,2.42
2022-11-16T00:26:56.347Z,2.80
2022-11-16T00:29:25.098Z,2.65
2022-11-16T00:31:52.490Z,3.15
2022-11-16T00:34:19.350Z,2.75
2022-11-16T00:36:47.035Z,2.58
2022-11-16T00:39:15.202Z,2.67
2022-11-16T00:41:42.443Z,3.20
2022-11-16T00:44:09.665Z,3.65
2022-11-16T00:46:36.146Z,3.90
2022-11-16T00:49:05.657Z,2.70
2022-11-16T00:51:33.080Z,3.53
2022-11-16T00:53:59.683Z,3.53
2022-11-16T00:56:26.026Z,3.47
2022-11-16T00:58:53.313Z,4.35
2022-11-16T01:01:19.741Z,3.10
2022-11-16T01:03:47.667Z,4.00
2022-11-16T01:06:15.648Z,3.30
2022-11-16T01:08:43.592Z,3.75
2022-11-16T01:11:30.941Z,3.83
2022-11-16T01:13:57.232Z,3.13
2022-11-16T01:16:24.113Z,3.72
2022-11-16T01:18:54.096Z,3.97
2022-11-16T01:21:21.992Z,3.97
2022-11-16T01:23:48.857Z,4.00
2022-11-16T01:26:15.391Z,4.03
2022-11-16T01:28:42.027Z,3.65
2022-11-16T01:31:09.616Z,3.95
2022-11-16T01:33:36.971Z,4.20
2022-11-16T01:36:08.471Z,4.40
2022-11-16T01:38:35.521Z,3.83
2022-11-16T01:41:02.400Z,4.28
2022-11-16T01:43:29.008Z,3.90
2022-11-16T01:45:55.538Z,3.83
2022-11-16T01:48:30.100Z,4.10
2022-11-16T01:50:57.956Z,3.70
2022-11-16T01:53:25.002Z,4.75
2022-11-16T01:55:52.279Z,4.13
2022-11-16T01:58:23.322Z,4.22
2022-11-16T02:00:50.036Z,4.03
2022-11-16T02:03:20.609Z,4.10
2022-11-16T02:06:14.714Z,3.90
2022-11-16T02:09:18.262Z,4.47
2022-11-16T02:11:50.581Z,4.38
2022-11-16T02:14:38.538Z,4.28
2022-11-16T02:17:28.194Z,4.18
2022-11-16T02:20:12.425Z,4.25
2022-11-16T02:22:47.478Z,4.47
2022-11-16T02:25:36.015Z,4.90
2022-11-16T02:28:22.891Z,4.28
2022-11-16T02:30:53.723Z,4.68
2022-11-16T02:33:25.706Z,4.40
2022-11-16T02:35:56.857Z,5.25
2022-11-16T02:38:34.587Z,4.60
2022-11-16T02:41:14.226Z,4.55
2022-11-16T02:43:44.771Z,4.85
2022-11-16T02:46:26.894Z,4.72
2022-11-16T02:48:56.596Z,4.32
2022-11-16T02:51:26.462Z,4.75
2022-11-16T02:54:11.512Z,5.18
2022-11-16T02:57:02.495Z,4.18
2022-11-16T02:59:46.427Z,4.97
2022-11-16T03:02:50.615Z,5.18
2022-11-16T03:06:03.078Z,5.10
2022-11-16T03:08:54.653Z,4.80
2022-11-16T03:11:39.680Z,5.25
2022-11-16T03:14:10.387Z,4.95
2022-11-16T03:16:39.750Z,5.00
2022-11-16T03:19:10.404Z,5.18
2022-11-16T03:21:43.859Z,5.25
2022-11-16T03:24:10.555Z,4.70
2022-11-16T03:26:51.095Z,5.32
2022-11-16T03:29:31.960Z,4.65
2022-11-16T03:32:16.674Z,5.75
2022-11-16T03:34:55.936Z,5.47
2022-11-16T03:37:24.373Z,5.30
2022-11-16T03:39:53.177Z,5.32
2022-11-16T03:42:22.042Z,5.18
2022-11-16T03:44:49.578Z,4.70
2022-11-16T03:47:16.121Z,4.75
2022-11-16T03:49:46.691Z,4.85
2022-11-16T03:52:15.555Z,4.80
2022-11-16T03:54:42.495Z,5.35
2022-11-16T03:57:15.509Z,5.07
2022-11-16T03:59:43.666Z,5.03
2022-11-16T04:02:10.660Z,4.70
2022-11-16T04:04:55.837Z,4.82
2022-11-16T04:07:40.488Z,4.43
2022-11-16T04:10:26.203Z,4.43
2022-11-16T04:13:11.476Z,4.90
2022-11-16T04:15:56.574Z,4.55
2022-11-16T04:18:41.772Z,4.53
2022-11-16T04:21:37.662Z,4.40
2022-11-16T04:24:13.528Z,4.43
2022-11-16T04:27:03.082Z,4.10
2022-11-16T04:29:30.094Z,4.38
2022-11-16T04:32:14.890Z,4.70
2022-11-16T04:35:00.001Z,3.92
2022-11-16T04:37:44.847Z,4.68
2022-11-16T04:40:11.979Z,4.53
2022-11-16T04:42:38.518Z,5.22
2022-11-16T04:45:23.890Z,4.18
2022-11-16T04:47:51.036Z,4.70
2022-11-16T04:50:19.200Z,4.70
2022-11-16T04:52:45.924Z,3.65
2022-11-16T04:55:15.549Z,3.67
2022-11-16T04:57:43.018Z,3.97
2022-11-16T05:00:10.617Z,3.55
2022-11-16T05:02:37.198Z,3.10
2022-11-16T05:05:04.037Z,3.00
2022-11-16T05:07:30.612Z,2.65
2022-11-16T05:09:57.015Z,2.22
2022-11-16T05:12:26.388Z,2.00
2022-11-16T05:14:54.873Z,2.00
2022-11-16T05:17:22.832Z,2.17
2022-11-16T05:20:08.023Z,1.90
2022-11-16T05:22:37.028Z,1.85
2022-11-16T05:25:04.989Z,1.80
2022-11-16T05:27:31.731Z,1.80
2022-11-16T05:29:58.470Z,2.20
2022-11-16T05:32:26.172Z,2.10
2022-11-16T05:34:54.578Z,2.07
2022-11-16T05:37:21.373Z,1.83
2022-11-16T05:39:48.175Z,1.65
2022-11-16T05:42:14.742Z,1.88
2022-11-16T05:44:41.095Z,2.20
2022-11-16T05:47:07.467Z,1.73
2022-11-16T05:49:34.816Z,1.70
2022-11-16T05:52:01.410Z,2.05
2022-11-16T05:54:28.154Z,2.10
2022-11-16T05:56:55.261Z,2.05
2022-11-16T05:59:22.952Z,1.95
2022-11-16T06:01:51.967Z,1.60
2022-11-16T06:04:23.985Z,1.90
2022-11-16T06:06:50.597Z,1.85
2022-11-16T06:09:18.720Z,1.85
2022-11-16T06:11:45.659Z,2.17
2022-11-16T06:14:12.255Z,2.70
2022-11-16T06:16:38.646Z,2.83
2022-11-16T06:19:04.994Z,2.47
2022-11-16T06:21:31.767Z,2.22
2022-11-16T06:23:58.292Z,2.33
2022-11-16T06:26:24.656Z,2.10
2022-11-16T06:28:52.348Z,2.20
2022-11-16T06:31:18.882Z,2.50
2022-11-16T06:33:49.417Z,2.40
2022-11-16T06:36:17.806Z,2.42
2022-11-16T06:38:45.789Z,2.25
2022-11-16T06:41:12.325Z,1.90
2022-11-16T06:43:38.834Z,1.83
2022-11-16T06:46:06.868Z,1.60
2022-11-16T06:48:34.274Z,2.08
2022-11-16T06:51:01.549Z,1.85
2022-11-16T06:53:29.583Z,2.10
2022-11-16T06:56:01.030Z,1.75
2022-11-16T06:58:31.208Z,1.85
2022-11-16T07:00:58.697Z,2.55
2022-11-16T07:03:25.077Z,2.88
2022-11-16T07:05:51.768Z,2.67
2022-11-16T07:08:18.157Z,2.10
2022-11-16T07:10:44.483Z,1.80
2022-11-16T07:13:10.987Z,1.58
2022-11-16T07:15:37.464Z,1.88
2022-11-16T07:18:07.101Z,2.60
2022-11-16T07:20:34.751Z,2.33
2022-11-16T07:23:02.855Z,2.03
2022-11-16T07:25:29.794Z,1.67
2022-11-16T07:27:57.997Z,2.20
2022-11-16T07:30:24.919Z,1.60
2022-11-16T07:32:51.302Z,1.50
2022-11-16T07:35:17.709Z,1.50
2022-11-16T07:37:44.248Z,3.60
2022-11-16T07:40:10.913Z,2.75
2022-11-16T07:42:37.282Z,2.55
2022-11-16T07:45:03.826Z,2.45
2022-11-16T07:47:37.381Z,2.58
2022-11-16T07:50:05.840Z,1.92
2022-11-16T07:52:32.384Z,2.85
2022-11-16T07:54:59.056Z,2.40
2022-11-16T07:57:25.557Z,2.45
2022-11-16T07:59:51.899Z,2.42
2022-11-16T08:02:18.283Z,2.20
2022-11-16T08:04:45.231Z,1.80
2022-11-16T08:07:11.656Z,2.13
2022-11-16T08:09:39.300Z,2.83
2022-11-16T08:12:05.849Z,2.60
2022-11-16T08:14:32.484Z,2.80
2022-11-16T08:16:59.345Z,2.83
2022-11-16T08:19:26.379Z,3.35
2022-11-16T08:21:52.709Z,3.00
2022-11-16T08:24:19.218Z,2.97
2022-11-16T08:26:45.580Z,2.67
2022-11-16T08:29:12.331Z,3.05
2022-11-16T08:31:39.360Z,3.00
2022-11-16T08:34:05.653Z,2.90
2022-11-16T08:36:32.182Z,2.33
2022-11-16T08:38:58.623Z,2.55
2022-11-16T08:41:25.047Z,2.92
2022-11-16T08:43:55.819Z,2.65
2022-11-16T08:46:22.244Z,2.67
2022-11-16T08:48:48.918Z,2.45
2022-11-16T08:51:19.624Z,2.50
2022-11-16T08:53:48.669Z,2.22
2022-11-16T08:56:16.452Z,2.50
2022-11-16T08:58:45.240Z,2.50
2022-11-16T09:01:16.835Z,2.13
2022-11-16T09:03:44.207Z,1.90
2022-11-16T09:06:11.508Z,1.77
2022-11-16T09:08:39.771Z,2.28
2022-11-16T09:11:08.088Z,1.70
2022-11-16T09:13:34.563Z,2.30
2022-11-16T09:16:02.291Z,2.67
2022-11-16T09:18:28.991Z,3.00
2022-11-16T09:20:55.845Z,2.85
2022-11-16T09:23:25.470Z,3.10
2022-11-16T09:25:53.103Z,2.85
2022-11-16T09:28:20.726Z,2.95
2022-11-16T09:30:50.107Z,3.00
2022-11-16T09:33:16.957Z,2.50
2022-11-16T09:35:43.451Z,2.63
2022-11-16T09:38:10.306Z,2.70
2022-11-16T09:40:43.212Z,2.50
2022-11-16T09:43:45.835Z,2.78
2022-11-16T09:46:27.976Z,2.03
2022-11-16T09:48:58.014Z,2.08
2022-11-16T09:51:29.222Z,2.00
2022-11-16T09:54:02.163Z,2.08
2022-11-16T09:56:31.129Z,1.58
2022-11-16T09:59:06.431Z,2.38
2022-11-16T10:01:39.028Z,1.92
2022-11-16T10:04:17.495Z,2.17
2022-11-16T10:09:14.886Z,1.50
2022-11-16T10:11:54.424Z,3.33
2022-11-16T10:14:45.635Z,1.73
2022-11-16T10:17:37.207Z,1.55
2022-11-16T10:20:30.916Z,1.70
2022-11-16T10:23:00.832Z,2.65
2022-11-16T10:25:41.880Z,1.70
2022-11-16T10:28:26.346Z,1.95
2022-11-16T10:31:26.598Z,1.50
2022-11-16T10:33:56.923Z,1.52
2022-11-16T10:36:29.406Z,1.75
2022-11-16T10:38:57.214Z,2.03
2022-11-16T10:41:41.564Z,1.30
2022-11-16T10:44:35.816Z,1.60
2022-11-16T10:47:14.898Z,1.65
2022-11-16T10:49:56.818Z,1.30
2022-11-16T10:52:23.630Z,1.70
2022-11-16T10:54:50.262Z,1.58
2022-11-16T10:57:17.714Z,1.60
2022-11-16T10:59:45.717Z,1.60
2022-11-16T11:02:36.865Z,1.50
2022-11-16T11:05:20.074Z,1.20
2022-11-16T11:07:55.451Z,1.73
2022-11-16T11:10:34.674Z,1.63
2022-11-16T11:13:09.167Z,1.25
2022-11-16T11:15:36.331Z,1.30
2022-11-16T11:18:23.972Z,1.95
2022-11-16T11:21:21.050Z,1.15
2022-11-16T11:23:53.240Z,1.17
2022-11-16T11:26:37.518Z,1.75
2022-11-16T11:29:20.592Z,1.38
2022-11-16T11:31:52.046Z,1.67
2022-11-16T11:34:31.743Z,1.20
2022-11-16T11:37:03.148Z,1.95
2022-11-16T11:39:31.196Z,1.15
2022-11-16T11:42:17.230Z,1.55
2022-11-16T11:44:47.400Z,1.10
2022-11-16T11:47:59.666Z,1.45
2022-11-16T11:50:42.738Z,1.10
2022-11-16T11:53:35.753Z,1.15
2022-11-16T11:56:04.222Z,1.50
2022-11-16T11:58:34.039Z,0.95
2022-11-16T12:01:24.862Z,1.05
2022-11-16T12:04:10.497Z,1.00
2022-11-16T12:06:55.635Z,1.35
2022-11-16T12:09:34.084Z,1.00
2022-11-16T12:12:29.748Z,1.30
2022-11-16T12:15:21.367Z,1.25
2022-11-16T12:18:31.962Z,1.40
2022-11-16T12:21:13.466Z,1.08
2022-11-16T12:23:54.979Z,0.90
2022-11-16T12:26:24.080Z,1.00
2022-11-16T12:29:02.549Z,1.10
2022-11-16T12:34:36.619Z,2.33
2022-11-16T12:37:15.814Z,1.15
2022-11-16T12:40:08.304Z,1.15
2022-11-16T12:42:45.374Z,1.10
2022-11-16T12:45:43.687Z,1.20
2022-11-16T12:50:50.283Z,1.10
2022-11-16T12:53:37.386Z,0.88
2022-11-16T12:56:15.849Z,2.35
2022-11-16T12:59:16.500Z,1.42
2022-11-16T13:01:57.583Z,1.48
2022-11-16T13:04:36.076Z,1.08
2022-11-16T13:07:11.131Z,1.05
2022-11-16T13:09:43.351Z,1.10
2022-11-16T13:12:15.364Z,1.20
2022-11-16T13:14:45.829Z,1.02
2022-11-16T13:17:34.867Z,1.00
2022-11-16T13:20:41.073Z,0.95
2022-11-16T13:23:46.047Z,1.20
2022-11-16T13:26:31.739Z,1.20
2022-11-16T13:29:15.208Z,1.20
2022-11-16T13:32:05.867Z,1.60
2022-11-16T13:34:35.276Z,1.30
2022-11-16T13:37:01.652Z,0.95
2022-11-16T13:39:58.802Z,1.10
2022-11-16T13:42:26.530Z,1.65
2022-11-16T13:44:53.449Z,1.50
2022-11-16T13:47:27.473Z,1.27
2022-11-16T13:49:58.013Z,1.38
2022-11-16T13:53:40.942Z,1.40
2022-11-16T13:55:38.734Z,1.60
2022-11-16T13:58:07.227Z,1.35
2022-11-16T14:00:36.380Z,1.10
2022-11-16T14:03:29.829Z,1.00
2022-11-16T14:05:57.553Z,1.77
2022-11-16T14:08:27.189Z,1.03
2022-11-16T14:10:53.642Z,1.40
2022-11-16T14:13:36.411Z,0.90
2022-11-16T14:16:15.090Z,1.08
2022-11-16T14:21:30.630Z,1.13
2022-11-16T14:24:23.233Z,1.20
2022-11-16T14:27:18.670Z,1.38
2022-11-16T14:30:13.609Z,1.15
2022-11-16T14:32:49.444Z,1.08
2022-11-16T14:35:39.433Z,2.13
2022-11-16T14:38:16.344Z,1.20
2022-11-16T14:40:52.580Z,1.33
2022-11-16T14:43:31.501Z,1.60
2022-11-16T14:46:02.092Z,1.63
2022-11-16T14:48:29.144Z,1.40
2022-11-16T14:51:14.934Z,0.95
2022-11-16T14:53:50.546Z,1.25
2022-11-16T14:56:18.732Z,2.80
2022-11-16T14:59:16.199Z,1.90
2022-11-16T15:01:42.871Z,1.67
2022-11-16T15:04:12.017Z,1.75
2022-11-16T15:06:43.965Z,1.40
2022-11-16T15:09:18.093Z,1.40
2022-11-16T15:12:07.419Z,1.20
2022-11-16T15:14:40.471Z,1.13
2022-11-16T15:17:07.924Z,1.20
2022-11-16T15:19:34.706Z,1.48
2022-11-16T15:22:02.893Z,1.70
2022-11-16T15:24:33.429Z,2.58
2022-11-16T15:27:25.561Z,2.13
2022-11-16T15:29:52.065Z,1.95
2022-11-16T15:32:18.616Z,2.28
2022-11-16T15:34:53.140Z,2.40
2022-11-16T15:37:30.449Z,2.92
2022-11-16T15:40:00.086Z,2.80
2022-11-16T15:42:30.591Z,2.30
2022-11-16T15:45:01.192Z,2.10
2022-11-16T15:47:28.241Z,2.35
2022-11-16T15:49:55.415Z,2.85
2022-11-16T15:52:41.348Z,3.03
2022-11-16T15:55:20.818Z,2.45
2022-11-16T15:57:59.206Z,2.03
2022-11-16T16:00:26.720Z,2.25
2022-11-16T16:02:55.486Z,3.22
2022-11-16T16:05:39.663Z,1.90
2022-11-16T16:08:23.303Z,2.30
2022-11-16T16:11:10.500Z,2.83
2022-11-16T16:13:42.877Z,2.00
2022-11-16T16:16:30.389Z,2.88
2022-11-16T16:19:03.647Z,2.60
2022-11-16T16:21:42.392Z,2.63
2022-11-16T16:24:12.011Z,1.83
2022-11-16T16:26:38.389Z,2.40
2022-11-16T16:29:04.684Z,2.10
2022-11-16T16:31:31.008Z,2.17
2022-11-16T16:33:59.575Z,1.55
2022-11-16T16:38:55.140Z,1.83
2022-11-16T16:41:24.560Z,2.20
2022-11-16T16:43:51.573Z,2.60
2022-11-16T16:46:18.415Z,2.50
2022-11-16T16:48:45.079Z,2.15
2022-11-16T16:51:12.453Z,2.80
2022-11-16T16:53:39.263Z,3.13
2022-11-16T16:56:06.491Z,2.80
2022-11-16T16:58:32.903Z,3.47
2022-11-16T17:01:04.192Z,2.28
2022-11-16T17:03:30.686Z,2.40
2022-11-16T17:06:02.478Z,2.10
2022-11-16T17:08:36.329Z,2.40
2022-11-16T17:11:03.249Z,2.88
2022-11-16T17:13:30.024Z,3.28
2022-11-16T17:15:56.486Z,2.50
2022-11-16T17:18:23.454Z,2.88
2022-11-16T17:20:50.114Z,2.83
2022-11-16T17:23:18.233Z,2.80
2022-11-16T17:25:44.637Z,3.17
2022-11-16T17:28:11.246Z,2.67
2022-11-16T17:30:37.596Z,2.35
2022-11-16T17:33:04.006Z,2.67
2022-11-16T17:35:30.567Z,3.42
2022-11-16T17:37:58.620Z,3.00
2022-11-16T17:40:24.987Z,2.90
2022-11-16T17:42:52.958Z,1.90
2022-11-16T17:45:19.468Z,3.28
2022-11-16T17:47:45.955Z,2.42
2022-11-16T17:50:12.748Z,2.92
2022-11-16T17:52:39.122Z,3.17
2022-11-16T17:55:06.081Z,2.72
2022-11-16T17:57:32.858Z,3.00
2022-11-16T17:59:59.384Z,2.67
2022-11-16T18:02:26.285Z,3.03
2022-11-16T18:04:52.706Z,2.45
2022-11-16T18:07:21.519Z,2.20
2022-11-16T18:09:47.978Z,2.45
2022-11-16T18:12:16.145Z,2.60
2022-11-16T18:14:42.670Z,2.67
2022-11-16T18:17:13.610Z,2.88
2022-11-16T18:19:39.996Z,2.63
2022-11-16T18:22:06.595Z,2.50
2022-11-16T18:24:33.034Z,3.38
2022-11-16T18:26:59.459Z,3.10
2022-11-16T18:29:25.835Z,3.08
2022-11-16T18:31:54.262Z,2.38
2022-11-16T18:34:20.561Z,2.00
2022-11-16T18:36:48.865Z,2.10
2022-11-16T18:39:15.221Z,3.33
2022-11-16T18:41:50.103Z,2.47
2022-11-16T18:44:20.970Z,1.60
2022-11-16T18:46:47.549Z,2.00
2022-11-16T18:49:13.846Z,2.10
2022-11-16T18:51:40.348Z,2.10
2022-11-16T18:54:06.935Z,2.25
2022-11-16T18:56:34.973Z,2.22
2022-11-16T18:59:01.747Z,3.05
2022-11-16T19:01:29.378Z,3.22
2022-11-16T19:03:56.788Z,2.83
2022-11-16T19:06:24.816Z,2.92
2022-11-16T19:08:59.113Z,3.65
2022-11-16T19:11:28.300Z,2.10
2022-11-16T19:14:00.858Z,2.38
2022-11-16T19:16:27.542Z,2.58
2022-11-16T19:18:53.828Z,2.47
2022-11-16T19:21:24.152Z,2.83
2022-11-16T19:23:54.243Z,2.47
2022-11-16T19:26:24.976Z,3.13
2022-11-16T19:28:52.759Z,2.60
2022-11-16T19:31:23.272Z,5.28
2022-11-16T19:34:18.727Z,3.83
2022-11-16T19:36:46.121Z,2.83
2022-11-16T19:39:12.425Z,2.40
2022-11-16T19:41:38.754Z,2.65
2022-11-16T19:44:05.154Z,3.00
2022-11-16T19:46:34.165Z,2.90
2022-11-16T19:49:00.888Z,2.50
2022-11-16T19:51:29.192Z,3.05
2022-11-16T19:53:56.484Z,2.22
2022-11-16T19:56:24.682Z,2.67
2022-11-16T19:58:51.594Z,2.35
2022-11-16T20:01:19.515Z,2.28
2022-11-16T20:03:47.500Z,2.95
2022-11-16T20:06:15.014Z,2.70
2022-11-16T20:08:42.816Z,2.70
2022-11-16T20:11:20.755Z,2.85
2022-11-16T20:13:51.199Z,3.72
2022-11-16T20:16:20.429Z,3.80
2022-11-16T20:18:47.562Z,3.08
2022-11-16T20:21:20.956Z,3.55
2022-11-16T20:23:48.090Z,2.95
2022-11-16T20:26:15.029Z,3.10
2022-11-16T20:28:43.137Z,3.33
2022-11-16T20:31:20.998Z,3.20
2022-11-16T20:33:53.442Z,3.38
2022-11-16T20:36:22.683Z,3.05
2022-11-16T20:38:49.615Z,3.00
2022-11-16T20:41:23.454Z,3.25
2022-11-16T20:43:51.734Z,3.90
2022-11-16T20:46:19.343Z,3.40
2022-11-16T20:48:46.131Z,3.60
2022-11-16T20:51:17.026Z,3.65
2022-11-16T20:53:44.628Z,3.30
2022-11-16T20:56:11.313Z,3.08
2022-11-16T20:58:38.948Z,3.10
2022-11-16T21:01:14.405Z,2.90
2022-11-16T21:03:42.469Z,3.30
2022-11-16T21:06:08.803Z,2.53
2022-11-16T21:08:37.492Z,3.05
2022-11-16T21:11:19.905Z,2.80
2022-11-16T21:14:07.381Z,3.50
2022-11-16T21:16:34.157Z,2.67
2022-11-16T21:19:01.287Z,2.60
2022-11-16T21:21:28.039Z,2.85
2022-11-16T21:23:57.534Z,3.15
2022-11-16T21:26:26.873Z,2.83
2022-11-16T21:28:55.641Z,3.08
2022-11-16T21:31:25.721Z,2.72
2022-11-16T21:33:53.999Z,3.47
2022-11-16T21:36:23.720Z,3.30
2022-11-16T21:38:51.056Z,3.10
2022-11-16T21:41:19.425Z,2.55
2022-11-16T21:43:46.201Z,3.10
2022-11-16T21:46:15.151Z,2.85
2022-11-16T21:48:42.253Z,2.80
2022-11-16T21:51:14.122Z,2.67
2022-11-16T21:53:42.020Z,2.40
2022-11-16T21:56:13.226Z,2.83
2022-11-16T21:58:40.790Z,2.78
2022-11-16T22:01:08.320Z,2.70
2022-11-16T22:03:35.722Z,2.83
2022-11-16T22:06:24.104Z,2.67
2022-11-16T22:08:50.665Z,2.67
2022-11-16T22:11:17.723Z,2.85
2022-11-16T22:13:44.490Z,2.85
2022-11-16T22:16:13.144Z,2.97
2022-11-16T22:21:06.069Z,3.10
2022-11-16T22:23:33.525Z,2.75
2022-11-16T22:26:04.323Z,2.40
2022-11-16T22:28:33.109Z,2.53
2022-11-16T22:33:26.686Z,2.40
2022-11-16T22:35:53.318Z,2.72
2022-11-16T22:38:19.654Z,2.63
2022-11-16T22:40:53.309Z,2.45
2022-11-16T22:43:21.567Z,2.53
2022-11-16T22:45:47.886Z,2.72
2022-11-16T22:48:14.725Z,2.80
2022-11-16T22:50:42.004Z,2.72
2022-11-16T22:53:09.764Z,2.72
2022-11-16T22:55:37.724Z,3.08
2022-11-16T22:58:05.480Z,2.67
2022-11-16T23:00:36.346Z,3.30
2022-11-16T23:03:05.553Z,2.55
2022-11-16T23:05:31.872Z,2.90
2022-11-16T23:07:58.230Z,2.97
2022-11-16T23:10:24.609Z,3.20
2022-11-16T23:13:09.357Z,2.50
2022-11-16T23:15:51.202Z,2.78
2022-11-16T23:18:19.661Z,2.95
2022-11-16T23:21:04.881Z,2.88
2022-11-16T23:23:49.454Z,3.10
2022-11-16T23:26:41.772Z,2.78
2022-11-16T23:29:11.055Z,2.55
2022-11-16T23:31:38.102Z,2.53
2022-11-16T23:34:05.067Z,2.50
2022-11-16T23:36:31.550Z,2.50
2022-11-16T23:38:57.960Z,2.97
2022-11-16T23:41:56.543Z,2.53
2022-11-16T23:44:23.118Z,2.45
2022-11-16T23:46:49.642Z,1.98
2022-11-16T23:49:15.956Z,2.42
2022-11-16T23:51:42.287Z,2.35
2022-11-16T23:54:08.596Z,4.57
2022-11-16T23:56:34.905Z,4.40
2022-11-16T23:59:01.241Z,3.30
